createdAt,value
2023-01-25T00:00:15.703Z,101848.81
2023-01-25T00:03:38.814Z,101851.53
2023-01-25T00:06:41.368Z,101854.13
2023-01-25T00:09:44.526Z,101852.16
2023-01-25T00:12:47.631Z,101870.75
2023-01-25T00:15:50.931Z,101868.03
2023-01-25T00:18:53.461Z,101875.00
2023-01-25T00:21:56.549Z,101880.78
2023-01-25T00:24:59.155Z,101876.28
2023-01-25T00:28:02.328Z,101874.59
2023-01-25T00:31:07.374Z,101872.78
2023-01-25T00:34:25.801Z,101872.62
2023-01-25T00:37:38.980Z,101866.44
2023-01-25T00:40:41.993Z,101867.19
2023-01-25T00:43:44.546Z,101870.84
2023-01-25T00:46:48.296Z,101875.50
2023-01-25T00:49:50.989Z,101868.53
2023-01-25T00:52:54.095Z,101870.72
2023-01-25T00:55:57.777Z,101871.97
2023-01-25T00:59:00.927Z,101872.59
2023-01-25T01:02:04.517Z,101867.44
2023-01-25T01:05:08.450Z,101878.66
2023-01-25T01:08:11.711Z,101873.38
2023-01-25T01:11:14.854Z,101886.91
2023-01-25T01:14:17.476Z,101876.44
2023-01-25T01:17:20.623Z,101877.09
2023-01-25T01:20:23.480Z,101878.75
2023-01-25T01:23:31.746Z,101884.69
2023-01-25T01:26:34.451Z,101888.31
2023-01-25T01:29:37.777Z,101885.06
2023-01-25T01:32:40.607Z,101886.06
2023-01-25T01:35:46.801Z,101882.31
2023-01-25T01:38:50.330Z,101883.56
2023-01-25T01:41:53.480Z,101881.50
2023-01-25T01:44:56.271Z,101887.53
2023-01-25T01:47:59.410Z,101889.22
2023-01-25T01:51:24.898Z,101876.94
2023-01-25T01:54:36.402Z,101880.31
2023-01-25T01:57:44.960Z,101880.31
2023-01-25T02:00:48.341Z,101871.19
2023-01-25T02:03:51.905Z,101869.34
2023-01-25T02:07:03.440Z,101871.03
2023-01-25T02:10:09.632Z,101860.56
2023-01-25T02:13:13.087Z,101858.88
2023-01-25T02:16:18.864Z,101863.91
2023-01-25T02:19:48.136Z,101865.16
2023-01-25T02:23:01.760Z,101863.25
2023-01-25T02:26:07.054Z,101875.72
2023-01-25T02:29:10.827Z,101874.66
2023-01-25T02:32:15.169Z,101863.94
2023-01-25T02:35:23.912Z,101858.03
2023-01-25T02:38:35.683Z,101858.62
2023-01-25T02:41:41.100Z,101856.06
2023-01-25T02:44:44.803Z,101845.75
2023-01-25T02:47:48.727Z,101841.34
2023-01-25T02:50:51.935Z,101831.81
2023-01-25T02:53:55.023Z,101824.53
2023-01-25T02:56:58.088Z,101834.47
2023-01-25T03:00:01.198Z,101831.75
2023-01-25T03:03:04.534Z,101830.69
2023-01-25T03:06:08.112Z,101824.50
2023-01-25T03:09:12.202Z,101828.59
2023-01-25T03:12:15.372Z,101829.41
2023-01-25T03:15:18.705Z,101829.94
2023-01-25T03:18:22.380Z,101825.00
2023-01-25T03:21:25.329Z,101832.28
2023-01-25T03:24:28.532Z,101824.91
2023-01-25T03:27:31.893Z,101816.13
2023-01-25T03:30:36.115Z,101822.06
2023-01-25T03:33:39.184Z,101829.13
2023-01-25T03:36:43.191Z,101830.31
2023-01-25T03:39:46.036Z,101837.72
2023-01-25T03:42:48.998Z,101831.94
2023-01-25T03:45:57.844Z,101826.78
2023-01-25T03:49:00.740Z,101836.41
2023-01-25T03:52:04.499Z,101826.22
2023-01-25T03:55:08.523Z,101818.06
2023-01-25T03:58:12.312Z,101821.44
2023-01-25T04:01:15.814Z,101816.13
2023-01-25T04:04:19.016Z,101822.56
2023-01-25T04:07:21.766Z,101828.19
2023-01-25T04:10:24.902Z,101817.56
2023-01-25T04:13:27.959Z,101825.16
2023-01-25T04:16:31.946Z,101831.28
2023-01-25T04:19:35.977Z,101831.34
2023-01-25T04:22:39.257Z,101835.03
2023-01-25T04:25:42.544Z,101832.91
2023-01-25T04:28:46.090Z,101836.03
2023-01-25T04:31:49.504Z,101838.84
2023-01-25T04:34:52.746Z,101842.59
2023-01-25T04:37:58.450Z,101846.75
2023-01-25T04:41:01.767Z,101847.25
2023-01-25T04:44:04.352Z,101850.78
2023-01-25T04:47:07.607Z,101845.97
2023-01-25T04:50:11.162Z,101842.59
2023-01-25T04:53:14.263Z,101839.53
2023-01-25T04:56:17.098Z,101839.66
2023-01-25T04:59:20.404Z,101841.06
2023-01-25T05:02:23.471Z,101835.12
2023-01-25T05:05:26.731Z,101834.94
2023-01-25T05:08:29.679Z,101839.38
2023-01-25T05:11:34.655Z,101837.69
2023-01-25T05:14:38.907Z,101841.19
2023-01-25T05:17:42.369Z,101845.84
2023-01-25T05:20:45.773Z,101838.56
2023-01-25T05:23:48.896Z,101843.41
2023-01-25T05:27:05.626Z,101845.19
2023-01-25T05:30:10.603Z,101842.09
2023-01-25T05:33:13.425Z,101849.69
2023-01-25T05:36:16.607Z,101843.50
2023-01-25T05:39:19.242Z,101848.78
2023-01-25T05:42:23.113Z,101852.41
2023-01-25T05:45:26.416Z,101845.75
2023-01-25T05:48:30.502Z,101841.62
2023-01-25T05:51:33.832Z,101839.19
2023-01-25T05:54:37.507Z,101842.66
2023-01-25T05:57:40.525Z,101840.09
2023-01-25T06:00:43.752Z,101843.72
2023-01-25T06:03:49.337Z,101843.72
2023-01-25T06:06:53.081Z,101836.63
2023-01-25T06:09:56.403Z,101837.09
2023-01-25T06:13:00.001Z,101841.56
2023-01-25T06:16:03.274Z,101854.81
2023-01-25T06:19:13.532Z,101855.28
2023-01-25T06:22:16.809Z,101858.13
2023-01-25T06:25:19.672Z,101864.47
2023-01-25T06:28:22.579Z,101862.81
2023-01-25T06:31:25.807Z,101870.56
2023-01-25T06:34:29.092Z,101868.59
2023-01-25T06:37:33.052Z,101869.84
2023-01-25T06:40:35.820Z,101873.25
2023-01-25T06:43:39.369Z,101875.91
2023-01-25T06:46:42.099Z,101873.87
2023-01-25T06:49:44.763Z,101872.41
2023-01-25T06:52:57.061Z,101866.31
2023-01-25T06:56:00.954Z,101871.25
2023-01-25T06:59:04.808Z,101872.50
2023-01-25T07:02:07.848Z,101869.34
2023-01-25T07:05:11.463Z,101865.72
2023-01-25T07:08:14.402Z,101868.53
2023-01-25T07:11:19.138Z,101868.72
2023-01-25T07:14:22.182Z,101868.44
2023-01-25T07:17:25.042Z,101869.06
2023-01-25T07:20:27.853Z,101868.50
2023-01-25T07:23:32.632Z,101855.84
2023-01-25T07:26:35.514Z,101857.44
2023-01-25T07:29:38.348Z,101860.72
2023-01-25T07:32:41.112Z,101856.44
2023-01-25T07:35:44.010Z,101865.03
2023-01-25T07:38:47.692Z,101861.19
2023-01-25T07:41:50.710Z,101863.28
2023-01-25T07:44:53.874Z,101867.94
2023-01-25T07:48:04.259Z,101861.09
2023-01-25T07:51:12.952Z,101855.81
2023-01-25T07:54:15.823Z,101855.56
2023-01-25T07:57:20.378Z,101852.34
2023-01-25T08:00:24.849Z,101858.41
2023-01-25T08:03:28.205Z,101863.44
2023-01-25T08:06:35.927Z,101859.84
2023-01-25T08:09:39.813Z,101859.44
2023-01-25T08:12:46.380Z,101860.22
2023-01-25T08:15:56.284Z,101860.50
2023-01-25T08:19:00.885Z,101858.41
2023-01-25T08:22:04.271Z,101854.94
2023-01-25T08:25:07.708Z,101855.94
2023-01-25T08:28:11.098Z,101849.84
2023-01-25T08:31:19.622Z,101843.50
2023-01-25T08:34:23.091Z,101843.56
2023-01-25T08:37:29.603Z,101850.06
2023-01-25T08:40:33.777Z,101843.78
2023-01-25T08:43:38.700Z,101849.94
2023-01-25T08:46:41.921Z,101840.59
2023-01-25T08:49:44.733Z,101843.50
2023-01-25T08:52:47.861Z,101846.87
2023-01-25T08:55:50.523Z,101843.03
2023-01-25T08:58:54.025Z,101836.28
2023-01-25T09:01:56.580Z,101837.34
2023-01-25T09:04:59.712Z,101841.03
2023-01-25T09:08:02.855Z,101835.72
2023-01-25T09:11:08.358Z,101836.25
2023-01-25T09:14:10.928Z,101837.56
2023-01-25T09:17:14.045Z,101842.94
2023-01-25T09:20:17.243Z,101841.53
2023-01-25T09:23:22.914Z,101838.31
2023-01-25T09:26:25.666Z,101833.00
2023-01-25T09:29:28.854Z,101832.12
2023-01-25T09:32:31.517Z,101823.72
2023-01-25T09:35:35.684Z,101824.91
2023-01-25T09:38:41.126Z,101828.78
2023-01-25T09:42:15.687Z,101827.13
2023-01-25T09:45:34.730Z,101827.25
2023-01-25T09:48:53.908Z,101823.50
2023-01-25T09:52:08.164Z,101815.38
2023-01-25T09:55:15.009Z,101812.13
2023-01-25T09:58:22.153Z,101803.09
2023-01-25T10:01:46.901Z,101804.09
2023-01-25T10:04:54.277Z,101796.63
2023-01-25T10:08:16.412Z,101791.94
2023-01-25T10:11:26.951Z,101786.91
2023-01-25T10:14:35.619Z,101786.91
2023-01-25T10:17:40.952Z,101779.50
2023-01-25T10:20:56.476Z,101767.69
2023-01-25T10:24:14.161Z,101760.41
2023-01-25T10:27:22.871Z,101755.34
2023-01-25T10:30:41.711Z,101758.94
2023-01-25T10:33:47.179Z,101754.72
2023-01-25T10:37:14.810Z,101750.62
2023-01-25T10:40:26.977Z,101748.87
2023-01-25T10:43:30.210Z,101751.53
2023-01-25T10:46:33.673Z,101746.88
2023-01-25T10:49:47.911Z,101744.59
2023-01-25T10:52:58.648Z,101733.81
2023-01-25T10:56:19.376Z,101727.06
2023-01-25T10:59:27.306Z,101732.38
2023-01-25T11:02:36.336Z,101732.16
2023-01-25T11:05:41.859Z,101725.09
2023-01-25T11:08:44.786Z,101726.25
2023-01-25T11:12:02.337Z,101709.75
2023-01-25T11:15:24.787Z,101711.84
2023-01-25T11:18:36.009Z,101707.34
2023-01-25T11:21:59.953Z,101706.78
2023-01-25T11:25:28.040Z,101703.25
2023-01-25T11:28:30.902Z,101685.63
2023-01-25T11:31:35.167Z,101680.13
2023-01-25T11:34:38.108Z,101676.22
2023-01-25T11:38:02.544Z,101671.81
2023-01-25T11:41:25.175Z,101664.47
2023-01-25T11:45:05.310Z,101657.44
2023-01-25T11:48:47.859Z,101645.91
2023-01-25T11:52:00.025Z,101640.97
2023-01-25T11:55:18.118Z,101622.63
2023-01-25T11:58:40.498Z,101617.88
2023-01-25T12:02:36.062Z,101601.50
2023-01-25T12:06:50.953Z,101595.97
2023-01-25T12:10:09.372Z,101601.25
2023-01-25T12:13:36.629Z,101597.16
2023-01-25T12:17:07.687Z,101596.91
2023-01-25T12:20:31.516Z,101584.34
2023-01-25T12:23:57.747Z,101584.34
2023-01-25T12:27:29.652Z,101579.37
2023-01-25T12:30:55.042Z,101579.72
2023-01-25T12:34:05.037Z,101575.00
2023-01-25T12:37:24.714Z,101577.25
2023-01-25T12:40:30.195Z,101572.00
2023-01-25T12:43:45.606Z,101571.50
2023-01-25T12:47:05.409Z,101568.91
2023-01-25T12:50:47.483Z,101566.13
2023-01-25T12:53:53.261Z,101560.81
2023-01-25T12:57:02.531Z,101557.41
2023-01-25T13:00:45.884Z,101555.37
2023-01-25T13:04:11.065Z,101550.44
2023-01-25T13:07:25.468Z,101546.75
2023-01-25T13:10:33.384Z,101548.00
2023-01-25T13:13:38.955Z,101543.88
2023-01-25T13:17:18.453Z,101542.84
2023-01-25T13:21:00.177Z,101530.88
2023-01-25T13:24:16.845Z,101524.81
2023-01-25T13:27:26.535Z,101522.13
2023-01-25T13:30:34.682Z,101529.81
2023-01-25T13:33:40.182Z,101536.34
2023-01-25T13:37:05.985Z,101522.13
2023-01-25T13:40:35.513Z,101522.63
2023-01-25T13:43:46.405Z,101513.41
2023-01-25T13:46:49.464Z,101518.56
2023-01-25T13:50:06.419Z,101524.22
2023-01-25T13:53:17.813Z,101517.78
2023-01-25T13:56:47.935Z,101514.03
2023-01-25T14:00:11.190Z,101517.97
2023-01-25T14:03:37.430Z,101507.94
2023-01-25T14:06:41.516Z,101507.69
2023-01-25T14:09:46.384Z,101502.75
2023-01-25T14:12:51.076Z,101491.37
2023-01-25T14:15:59.871Z,101495.38
2023-01-25T14:19:22.602Z,101501.78
2023-01-25T14:22:28.152Z,101492.62
2023-01-25T14:25:33.386Z,101500.41
2023-01-25T14:28:36.416Z,101500.72
2023-01-25T14:31:40.271Z,101502.50
2023-01-25T14:34:45.607Z,101504.84
2023-01-25T14:37:48.645Z,101500.00
2023-01-25T14:40:58.423Z,101498.63
2023-01-25T14:44:10.642Z,101497.87
2023-01-25T14:47:23.458Z,101497.28
2023-01-25T14:50:37.906Z,101493.97
2023-01-25T14:53:45.688Z,101491.25
2023-01-25T14:56:51.837Z,101491.81
2023-01-25T14:59:56.246Z,101487.22
2023-01-25T15:03:05.734Z,101486.97
2023-01-25T15:06:08.930Z,101486.62
2023-01-25T15:10:01.195Z,101486.06
2023-01-25T15:13:14.233Z,101481.44
2023-01-25T15:16:18.873Z,101480.56
2023-01-25T15:19:30.061Z,101479.62
2023-01-25T15:22:35.036Z,101473.19
2023-01-25T15:25:49.961Z,101479.69
2023-01-25T15:28:57.292Z,101476.88
2023-01-25T15:32:02.054Z,101470.56
2023-01-25T15:35:21.851Z,101472.12
2023-01-25T15:38:25.689Z,101473.97
2023-01-25T15:41:28.721Z,101470.56
2023-01-25T15:44:33.336Z,101469.19
2023-01-25T15:47:37.413Z,101477.06
2023-01-25T15:50:41.361Z,101484.47
2023-01-25T15:53:49.033Z,101474.78
2023-01-25T15:56:56.129Z,101480.72
2023-01-25T16:00:01.844Z,101482.88
2023-01-25T16:03:07.871Z,101482.88
2023-01-25T16:06:34.142Z,101474.06
2023-01-25T16:09:36.704Z,101469.44
2023-01-25T16:12:39.823Z,101463.03
2023-01-25T16:15:42.539Z,101459.63
2023-01-25T16:18:46.218Z,101463.03
2023-01-25T16:21:49.657Z,101467.69
2023-01-25T16:24:53.083Z,101462.28
2023-01-25T16:27:55.723Z,101464.50
2023-01-25T16:30:59.117Z,101463.84
2023-01-25T16:34:01.949Z,101457.09
2023-01-25T16:37:05.015Z,101457.78
2023-01-25T16:40:26.148Z,101462.03
2023-01-25T16:43:42.094Z,101456.87
2023-01-25T16:46:45.410Z,101458.19
2023-01-25T16:49:48.451Z,101456.66
2023-01-25T16:52:51.747Z,101460.78
2023-01-25T16:55:54.869Z,101453.44
2023-01-25T16:59:01.383Z,101455.91
2023-01-25T17:02:04.637Z,101458.06
2023-01-25T17:05:09.305Z,101448.53
2023-01-25T17:08:12.537Z,101440.66
2023-01-25T17:11:15.977Z,101454.09
2023-01-25T17:14:20.593Z,101451.75
2023-01-25T17:17:24.100Z,101445.03
2023-01-25T17:20:27.293Z,101440.53
2023-01-25T17:23:32.166Z,101439.63
2023-01-25T17:26:35.661Z,101438.84
2023-01-25T17:29:38.311Z,101434.47
2023-01-25T17:32:41.522Z,101436.13
2023-01-25T17:35:44.226Z,101438.06
2023-01-25T17:38:47.887Z,101426.59
2023-01-25T17:41:51.474Z,101419.50
2023-01-25T17:44:54.634Z,101408.91
2023-01-25T17:47:57.317Z,101413.69
2023-01-25T17:51:02.123Z,101408.62
2023-01-25T17:54:05.806Z,101400.88
2023-01-25T17:57:10.504Z,101404.25
2023-01-25T18:00:14.087Z,101392.34
2023-01-25T18:03:16.917Z,101401.66
2023-01-25T18:06:24.569Z,101394.56
2023-01-25T18:09:27.593Z,101402.22
2023-01-25T18:12:30.458Z,101394.56
2023-01-25T18:15:33.821Z,101390.56
2023-01-25T18:18:37.381Z,101398.94
2023-01-25T18:21:42.039Z,101391.56
2023-01-25T18:24:45.969Z,101391.06
2023-01-25T18:27:49.237Z,101389.81
2023-01-25T18:30:57.391Z,101399.25
2023-01-25T18:34:00.518Z,101391.62
2023-01-25T18:37:17.829Z,101387.25
2023-01-25T18:40:20.729Z,101380.38
2023-01-25T18:43:23.731Z,101368.50
2023-01-25T18:46:27.927Z,101362.31
2023-01-25T18:49:30.849Z,101355.22
2023-01-25T18:52:35.254Z,101356.13
2023-01-25T18:55:38.492Z,101345.53
2023-01-25T18:58:42.174Z,101347.38
2023-01-25T19:01:45.140Z,101338.59
2023-01-25T19:04:48.403Z,101337.78
2023-01-25T19:07:52.615Z,101341.19
2023-01-25T19:11:02.005Z,101335.72
2023-01-25T19:14:05.808Z,101333.88
2023-01-25T19:17:11.469Z,101333.25
2023-01-25T19:20:14.398Z,101320.28
2023-01-25T19:23:17.218Z,101318.28
2023-01-25T19:26:22.104Z,101317.63
2023-01-25T19:29:25.005Z,101315.94
2023-01-25T19:32:29.455Z,101313.12
2023-01-25T19:35:32.320Z,101317.41
2023-01-25T19:38:39.017Z,101310.66
2023-01-25T19:41:41.972Z,101303.28
2023-01-25T19:44:44.879Z,101310.34
2023-01-25T19:47:47.739Z,101313.19
2023-01-25T19:50:50.690Z,101304.66
2023-01-25T19:54:05.582Z,101308.81
2023-01-25T19:57:08.527Z,101308.00
2023-01-25T20:00:12.009Z,101304.66
2023-01-25T20:03:16.670Z,101306.69
2023-01-25T20:06:21.158Z,101306.16
2023-01-25T20:09:28.567Z,101302.25
2023-01-25T20:12:31.565Z,101292.03
2023-01-25T20:15:34.508Z,101298.66
2023-01-25T20:18:37.689Z,101289.09
2023-01-25T20:21:40.924Z,101293.00
2023-01-25T20:24:43.790Z,101281.53
2023-01-25T20:27:46.713Z,101286.34
2023-01-25T20:30:49.620Z,101284.44
2023-01-25T20:33:55.274Z,101274.53
2023-01-25T20:37:00.324Z,101269.12
2023-01-25T20:40:03.734Z,101267.56
2023-01-25T20:43:06.613Z,101268.78
2023-01-25T20:46:09.436Z,101261.03
2023-01-25T20:49:18.086Z,101261.69
2023-01-25T20:52:20.917Z,101259.88
2023-01-25T20:55:23.750Z,101258.34
2023-01-25T20:58:27.660Z,101250.72
2023-01-25T21:01:38.804Z,101255.31
2023-01-25T21:04:42.075Z,101245.09
2023-01-25T21:07:45.119Z,101244.09
2023-01-25T21:10:56.654Z,101239.69
2023-01-25T21:13:59.687Z,101231.06
2023-01-25T21:17:02.581Z,101237.13
2023-01-25T21:20:07.273Z,101231.72
2023-01-25T21:23:10.411Z,101233.09
2023-01-25T21:26:15.718Z,101223.84
2023-01-25T21:29:21.122Z,101226.22
2023-01-25T21:32:25.567Z,101220.53
2023-01-25T21:35:29.570Z,101223.59
2023-01-25T21:38:32.756Z,101219.78
2023-01-25T21:41:35.663Z,101217.72
2023-01-25T21:44:57.252Z,101211.53
2023-01-25T21:48:00.240Z,101210.78
2023-01-25T21:51:21.552Z,101203.94
2023-01-25T21:54:30.820Z,101204.03
2023-01-25T21:57:33.860Z,101200.00
2023-01-25T22:00:37.207Z,101193.28
2023-01-25T22:03:40.360Z,101192.63
2023-01-25T22:06:43.471Z,101191.03
2023-01-25T22:09:49.084Z,101186.66
2023-01-25T22:12:51.712Z,101190.47
2023-01-25T22:15:58.880Z,101185.31
2023-01-25T22:19:01.496Z,101186.88
2023-01-25T22:22:04.616Z,101181.84
2023-01-25T22:25:07.375Z,101178.25
2023-01-25T22:28:14.417Z,101169.50
2023-01-25T22:31:19.252Z,101183.31
2023-01-25T22:34:22.581Z,101171.16
2023-01-25T22:37:25.213Z,101170.84
2023-01-25T22:40:28.519Z,101170.47
2023-01-25T22:43:32.790Z,101165.09
2023-01-25T22:46:37.143Z,101169.56
2023-01-25T22:49:39.902Z,101160.94
2023-01-25T22:52:43.001Z,101154.75
2023-01-25T22:55:45.579Z,101153.97
2023-01-25T22:58:49.405Z,101150.34
2023-01-25T23:01:52.041Z,101151.03
2023-01-25T23:04:55.471Z,101145.75
2023-01-25T23:07:59.268Z,101149.91
2023-01-25T23:11:13.831Z,101140.47
2023-01-25T23:14:35.291Z,101137.78
2023-01-25T23:18:01.053Z,101137.12
2023-01-25T23:21:04.894Z,101130.03
2023-01-25T23:24:09.288Z,101142.28
2023-01-25T23:27:12.724Z,101136.81
2023-01-25T23:30:16.752Z,101128.81
2023-01-25T23:33:19.305Z,101128.47
2023-01-25T23:36:27.228Z,101117.78
2023-01-25T23:39:30.103Z,101121.28
2023-01-25T23:42:33.202Z,101115.31
2023-01-25T23:45:35.779Z,101106.03
2023-01-25T23:48:38.949Z,101110.16
2023-01-25T23:51:41.809Z,101106.81
2023-01-25T23:54:44.985Z,101093.66
2023-01-25T23:57:47.946Z,101085.50
